Fuji Maru — JD2030 — position and weather

sailwx.info

Track history (hours):
 
Tides and Currents Weather Stations Pressure Air Temp Water Temp Dewpoint Dewpoint Depression Visibility Wind Speed Wind Dir Waves Ship Positions

Fuji Maru

Last reported at 2018-Apr-23 13:30 UTC. Time now 2018-Apr-23 13:30 UTC.
Position N 35°38' E 139°46'.

Length 38 m; draft 4.4 m.

Type: Tug. MMSI: 431001102.

Date/timePositionNaut miles runAvg speedWind from/ knotsBaromVisibWave heightAir tempDewpointWater temp
2018-Apr-23 13:30N 35°38' E 139°46'0 0.1
2018-Apr-23 12:59N 35°38' E 139°46'0 0.8
2018-Apr-23 12:27N 35°38' E 139°46'0 0.0
2018-Apr-23 12:00N 35°38' E 139°46'0 0.0
2018-Apr-23 11:30N 35°38' E 139°46'0 0.6
2018-Apr-23 11:00N 35°37' E 139°46'2 3.1
2018-Apr-23 10:30N 35°36' E 139°47'1 1.4
2018-Apr-23 09:59N 35°36' E 139°46'1 1.8
2018-Apr-23 09:29N 35°37' E 139°46'1 2.0
2018-Apr-23 09:00N 35°38' E 139°46'0 0.0
2018-Apr-23 08:30N 35°38' E 139°46'0 0.0
2018-Apr-23 08:00N 35°38' E 139°46'0 0.0
2018-Apr-23 07:31N 35°38' E 139°46'0 0.0
2018-Apr-23 07:00N 35°38' E 139°46'2 3.9
2018-Apr-23 06:29N 35°37' E 139°47'1 2.7
2018-Apr-23 06:00N 35°35' E 139°47'4 7.3
2018-Apr-23 05:30N 35°34' E 139°52'4 8.1
2018-Apr-23 05:01N 35°36' E 139°47'3 5.6
2018-Apr-23 04:30N 35°38' E 139°46'0 0.0
2018-Apr-23 04:00N 35°38' E 139°46'0 0.0
2018-Apr-23 03:30N 35°38' E 139°46'0 0.0
2018-Apr-23 03:00N 35°38' E 139°46'0 0.0
2018-Apr-23 02:30N 35°38' E 139°46'0 0.0
2018-Apr-23 02:00N 35°38' E 139°46'0 0.0
2018-Apr-23 01:31N 35°38' E 139°46'0 0.0
2018-Apr-23 00:58N 35°38' E 139°46'0 0.0
2018-Apr-23 00:30N 35°38' E 139°46'0 0.0
2018-Apr-23 00:00N 35°38' E 139°46'0 0.0
2018-Apr-22 23:30N 35°38' E 139°46'2 3.2
2018-Apr-22 23:00N 35°37' E 139°46'1 1.4
2018-Apr-22 22:30N 35°36' E 139°47'1 2.4
2018-Apr-22 22:00N 35°35' E 139°47'2 3.7
2018-Apr-22 21:30N 35°34' E 139°49'3 6.0
2018-Apr-22 20:59N 35°36' E 139°46'1 1.1
2018-Apr-22 20:30N 35°37' E 139°46'0 0.2
2018-Apr-22 20:00N 35°37' E 139°46'2 0.6
2018-Apr-22 17:18N 35°38' E 139°45'0 0.0
2018-Apr-22 17:01N 35°38' E 139°45'0 0.0
2018-Apr-22 16:25N 35°38' E 139°45'0 0.0
2018-Apr-22 15:34N 35°38' E 139°45'0 0.0
2018-Apr-22 14:55N 35°38' E 139°45'0 0.0
2018-Apr-22 14:30N 35°38' E 139°45'0 0.0
2018-Apr-22 14:00N 35°38' E 139°45'0 0.0
2018-Apr-22 13:22N 35°38' E 139°45'0 0.0
2018-Apr-22 12:57N 35°38' E 139°45'0 0.0
2018-Apr-22 12:30N 35°38' E 139°45'0 0.0
2018-Apr-22 11:56N 35°38' E 139°45'0 0.0
2018-Apr-22 11:28N 35°38' E 139°45'0 0.0
2018-Apr-22 11:00N 35°38' E 139°45'0 0.0
2018-Apr-22 10:17N 35°38' E 139°45'0 0.0
2018-Apr-22 09:58N 35°38' E 139°45'0 0.0
2018-Apr-22 09:29N 35°38' E 139°45'0 0.0
2018-Apr-22 09:01N 35°38' E 139°45'0 0.0
2018-Apr-22 08:30N 35°38' E 139°45'0 0.0
2018-Apr-22 08:00N 35°38' E 139°45'0 0.0
2018-Apr-22 07:29N 35°38' E 139°45'0 0.0
2018-Apr-22 07:00N 35°38' E 139°45'0 0.0
2018-Apr-22 06:31N 35°38' E 139°45'0 0.0
2018-Apr-22 05:58N 35°38' E 139°45'0 0.0
2018-Apr-22 05:20N 35°38' E 139°45'0 0.0
2018-Apr-22 04:52N 35°38' E 139°45'0 0.0
2018-Apr-22 04:30N 35°38' E 139°45'0 0.0
2018-Apr-22 04:00N 35°38' E 139°45'0 0.0
2018-Apr-22 03:27N 35°38' E 139°45'0 0.0
2018-Apr-22 02:53N 35°38' E 139°45'0 0.0
2018-Apr-22 02:31N 35°38' E 139°45'0 0.0
2018-Apr-22 02:00N 35°38' E 139°45'2 3.6
2018-Apr-22 01:30N 35°36' E 139°46'0 0.7
2018-Apr-22 01:00N 35°36' E 139°47'1 2.9
2018-Apr-22 00:30N 35°38' E 139°46'1 1.2
2018-Apr-21 23:59N 35°38' E 139°46'0 0.0
2018-Apr-21 23:29N 35°38' E 139°46'0 0.0
2018-Apr-21 23:01N 35°38' E 139°46'0 0.0
2018-Apr-21 22:30N 35°38' E 139°46'0 0.0
2018-Apr-21 21:59N 35°38' E 139°46'0 0.0
2018-Apr-21 21:30N 35°38' E 139°46'0 0.0
2018-Apr-21 21:00N 35°38' E 139°46'0 0.0
2018-Apr-21 20:31N 35°38' E 139°46'0 0.0
2018-Apr-21 20:01N 35°38' E 139°46'0 0.0
2018-Apr-21 19:30N 35°38' E 139°46'0 0.0
2018-Apr-21 19:00N 35°38' E 139°46'0 0.0
2018-Apr-21 18:31N 35°38' E 139°46'0 0.0
2018-Apr-21 18:00N 35°38' E 139°46'0 0.0
2018-Apr-21 17:30N 35°38' E 139°46'0 0.0
2018-Apr-21 17:00N 35°38' E 139°46'0 0.0
2018-Apr-21 16:29N 35°38' E 139°46'0 0.0
2018-Apr-21 16:00N 35°38' E 139°46'0 0.0
2018-Apr-21 15:30N 35°38' E 139°46'0 0.0
2018-Apr-21 15:01N 35°38' E 139°46'0 0.0
2018-Apr-21 14:30N 35°38' E 139°46'0 0.0
2018-Apr-21 14:00N 35°38' E 139°46'0 0.0
2018-Apr-21 13:30N 35°38' E 139°46'0 0.0
2018-Apr-21 13:01N 35°38' E 139°46'0 0.0
2018-Apr-21 12:30N 35°38' E 139°46'0 0.0
2018-Apr-21 11:59N 35°38' E 139°46'0 0.0
2018-Apr-21 11:30N 35°38' E 139°46'0 0.0
2018-Apr-21 11:00N 35°38' E 139°46'0 0.0
2018-Apr-21 10:30N 35°38' E 139°46'2 3.4
2018-Apr-21 10:01N 35°37' E 139°46'1 1.7
2018-Apr-21 09:29N 35°37' E 139°46'1 1.6
2018-Apr-21 09:00N 35°38' E 139°46'0 0.0
2018-Apr-21 08:31N 35°38' E 139°46'0 0.0
2018-Apr-21 08:01N 35°38' E 139°46'0 0.0
2018-Apr-21 07:31N 35°38' E 139°46'0 0.0
2018-Apr-21 07:00N 35°38' E 139°46'0 0.0
2018-Apr-21 06:30N 35°38' E 139°46'0 0.0
2018-Apr-21 06:01N 35°38' E 139°46'0 0.0
2018-Apr-21 05:30N 35°38' E 139°46'0 0.0
2018-Apr-21 05:00N 35°38' E 139°46'0 0.0
2018-Apr-21 04:30N 35°38' E 139°46'0 0.0
2018-Apr-21 04:01N 35°38' E 139°46'0 0.0
2018-Apr-21 03:30N 35°38' E 139°46'0 0.0
2018-Apr-21 03:00N 35°38' E 139°46'0 0.0
2018-Apr-21 02:28N 35°38' E 139°46'0 0.0
2018-Apr-21 01:59N 35°38' E 139°46'0 0.0
2018-Apr-21 01:19N 35°38' E 139°46'0 0.0
2018-Apr-21 00:58N 35°38' E 139°46'0 0.0
2018-Apr-21 00:29N 35°38' E 139°46'0 0.0
2018-Apr-21 00:00N 35°38' E 139°46'0 0.0
2018-Apr-20 23:30N 35°38' E 139°46'0 0.0
2018-Apr-20 23:00N 35°38' E 139°46'2 3.2
2018-Apr-20 22:30N 35°37' E 139°46'0 0.7
2018-Apr-20 22:00N 35°36' E 139°46'3 5.6
2018-Apr-20 21:30N 35°34' E 139°49'1 2.0
2018-Apr-20 21:00N 35°35' E 139°48'2 3.3
2018-Apr-20 20:30N 35°36' E 139°46'2 4.2
2018-Apr-20 20:00N 35°38' E 139°45'0 0.1
2018-Apr-20 19:27N 35°38' E 139°45'0 0.0
2018-Apr-20 19:00N 35°38' E 139°45'1 1.8
2018-Apr-20 18:30N 35°37' E 139°46'1 1.8
2018-Apr-20 18:00N 35°38' E 139°45'0 0.0
2018-Apr-20 17:30N 35°38' E 139°45'0 0.0
2018-Apr-20 17:00N 35°38' E 139°45'0 0.0
2018-Apr-20 16:29N 35°38' E 139°45'0 0.0
2018-Apr-20 15:59N 35°38' E 139°45'0 0.0
2018-Apr-20 15:30N 35°38' E 139°45'0 0.0
2018-Apr-20 15:00N 35°38' E 139°45'0 0.0
2018-Apr-20 14:31N 35°38' E 139°45'0 0.0
2018-Apr-20 13:58N 35°38' E 139°45'0 0.0
2018-Apr-20 13:30N 35°38' E 139°45'0 0.0
2018-Apr-20 13:00N 35°38' E 139°45'0 0.0
2018-Apr-20 12:31N 35°38' E 139°45'0 0.0
2018-Apr-20 11:59N 35°38' E 139°45'0 0.0
2018-Apr-20 11:30N 35°38' E 139°45'0 0.0
2018-Apr-20 10:58N 35°38' E 139°45'0 0.0
2018-Apr-20 10:30N 35°38' E 139°45'0 0.0
2018-Apr-20 10:00N 35°38' E 139°45'0 0.0
2018-Apr-20 09:25N 35°38' E 139°45'0 0.0
2018-Apr-20 08:55N 35°38' E 139°45'0 0.0
2018-Apr-20 08:18N 35°38' E 139°45'0 0.0
2018-Apr-20 07:55N 35°38' E 139°45'0 0.0
2018-Apr-20 07:29N 35°38' E 139°45'0 0.0
2018-Apr-20 06:57N 35°38' E 139°45'0 0.0
2018-Apr-20 06:27N 35°38' E 139°45'0 0.0
2018-Apr-20 06:00N 35°38' E 139°45'0 0.0
2018-Apr-20 05:30N 35°38' E 139°45'0 0.0
2018-Apr-20 04:59N 35°38' E 139°45'0 0.0
2018-Apr-20 04:30N 35°38' E 139°45'0 0.0
2018-Apr-20 03:59N 35°38' E 139°45'0 0.0
2018-Apr-20 03:29N 35°38' E 139°45'0 0.0
2018-Apr-20 03:00N 35°38' E 139°45'0 0.0
2018-Apr-20 02:30N 35°38' E 139°45'0 0.0
2018-Apr-20 02:01N 35°38' E 139°45'0 0.0
2018-Apr-20 01:31N 35°38' E 139°45'0 0.0
2018-Apr-20 00:59N 35°38' E 139°45'0 0.0
2018-Apr-20 00:30N 35°38' E 139°45'0 0.0
2018-Apr-20 00:00N 35°38' E 139°45'0 0.0
2018-Apr-19 23:31N 35°38' E 139°45'0 0.0
2018-Apr-19 23:00N 35°38' E 139°45'0 0.0
2018-Apr-19 22:30N 35°38' E 139°45'0 0.0
2018-Apr-19 22:00N 35°38' E 139°45'0 0.0
2018-Apr-19 21:30N 35°38' E 139°45'0 0.0
2018-Apr-19 21:00N 35°38' E 139°45'0 0.0
2018-Apr-19 20:30N 35°38' E 139°45'0 0.0
2018-Apr-19 20:00N 35°38' E 139°45'0 0.0
2018-Apr-19 19:30N 35°38' E 139°45'0 0.0
2018-Apr-19 19:00N 35°38' E 139°45'0 0.0
2018-Apr-19 18:30N 35°38' E 139°45'0 0.0
2018-Apr-19 18:00N 35°38' E 139°45'0 0.0
2018-Apr-19 17:31N 35°38' E 139°45'0 0.0
2018-Apr-19 17:00N 35°38' E 139°45'0 0.0
2018-Apr-19 16:31N 35°38' E 139°45'0 0.0
2018-Apr-19 16:00N 35°38' E 139°45'0 0.0
2018-Apr-19 15:30N 35°38' E 139°45'0 0.0
2018-Apr-19 15:00N 35°38' E 139°45'0 0.0
2018-Apr-19 14:29N 35°38' E 139°45'0 0.0
2018-Apr-19 14:01N 35°38' E 139°45'0 0.0
2018-Apr-19 13:30N 35°38' E 139°45'0 0.0
2018-Apr-19 13:00N 35°38' E 139°45'0 0.0
2018-Apr-19 12:31N 35°38' E 139°45'0 0.0
2018-Apr-19 12:00N 35°38' E 139°45'0 0.0
2018-Apr-19 11:27N 35°38' E 139°45'0 0.0
2018-Apr-19 11:00N 35°38' E 139°45'0 0.0
2018-Apr-19 10:30N 35°38' E 139°45'0 0.0
2018-Apr-19 10:01N 35°38' E 139°45'0 0.0
2018-Apr-19 09:31N 35°38' E 139°45'0 0.0
2018-Apr-19 09:00N 35°38' E 139°45'0 0.0
2018-Apr-19 08:30N 35°38' E 139°45'0 0.0
2018-Apr-19 08:00N 35°38' E 139°45'0 0.0
2018-Apr-19 07:30N 35°38' E 139°45'0 0.0
2018-Apr-19 06:57N 35°38' E 139°45'0 0.0
2018-Apr-19 06:30N 35°38' E 139°45'0 0.0
2018-Apr-19 06:00N 35°38' E 139°45'0 0.0
2018-Apr-19 05:31N 35°38' E 139°45'0 0.0
2018-Apr-19 04:59N 35°38' E 139°45'0 0.0
2018-Apr-19 04:28N 35°38' E 139°45'0 0.0
2018-Apr-19 03:57N 35°38' E 139°45'0 0.0
2018-Apr-19 03:29N 35°38' E 139°45'0 0.0
2018-Apr-19 03:00N 35°38' E 139°45'0 0.0
2018-Apr-19 02:30N 35°38' E 139°45'0 0.0
2018-Apr-19 02:00N 35°38' E 139°45'0 0.0
2018-Apr-19 01:30N 35°38' E 139°45'0 0.0
2018-Apr-19 00:58N 35°38' E 139°45'0 0.0
2018-Apr-19 00:28N 35°38' E 139°45'0 0.0
2018-Apr-19 00:00N 35°38' E 139°45'0 0.0
2018-Apr-18 23:30N 35°38' E 139°45'0 0.7
2018-Apr-18 23:00N 35°39' E 139°46'1 3.0
2018-Apr-18 22:30N 35°37' E 139°46'4 7.4
2018-Apr-18 22:00N 35°34' E 139°49'0 0.8
2018-Apr-18 21:30N 35°34' E 139°48'3 5.4
2018-Apr-18 21:00N 35°36' E 139°46'1 2.8
2018-Apr-18 20:31N 35°38' E 139°46'1 1.3
2018-Apr-18 20:00N 35°38' E 139°45'0 0.0
2018-Apr-18 19:31N 35°38' E 139°45'0 0.0
2018-Apr-18 19:00N 35°38' E 139°45'0 0.0
2018-Apr-18 18:30N 35°38' E 139°45'0 0.0
2018-Apr-18 18:00N 35°38' E 139°45'0 0.0
2018-Apr-18 17:30N 35°38' E 139°45'0 0.0
2018-Apr-18 17:00N 35°38' E 139°45'0 0.0
2018-Apr-18 16:30N 35°38' E 139°45'0 0.0
2018-Apr-18 15:58N 35°38' E 139°45'0 0.0
2018-Apr-18 15:30N 35°38' E 139°45'0 0.0
2018-Apr-18 15:00N 35°38' E 139°45'0 0.0
2018-Apr-18 14:30N 35°38' E 139°45'0 0.0
2018-Apr-18 14:00N 35°38' E 139°45'0 0.0
2018-Apr-18 13:30N 35°38' E 139°45'0 0.0
2018-Apr-18 12:59N 35°38' E 139°45'0 0.0
2018-Apr-18 12:30N 35°38' E 139°45'0 0.0
2018-Apr-18 12:00N 35°38' E 139°45'0 0.0
2018-Apr-18 11:30N 35°38' E 139°45'0 0.0
2018-Apr-18 11:01N 35°38' E 139°45'0 0.0
2018-Apr-18 10:31N 35°38' E 139°45'0 0.0
2018-Apr-18 10:00N 35°38' E 139°45'0 0.0
2018-Apr-18 09:31N 35°38' E 139°45'0 0.0
2018-Apr-18 09:01N 35°38' E 139°45'0 0.0
2018-Apr-18 08:28N 35°38' E 139°45'0 0.0
2018-Apr-18 08:01N 35°38' E 139°45'0 0.0
2018-Apr-18 07:31N 35°38' E 139°45'0 0.0
2018-Apr-18 06:59N 35°38' E 139°45'1 2.0
2018-Apr-18 06:29N 35°37' E 139°46'1 1.8
2018-Apr-18 05:57N 35°38' E 139°45'0 0.0
2018-Apr-18 05:29N 35°38' E 139°45'0 0.0
2018-Apr-18 04:51N 35°38' E 139°45'0 0.0
2018-Apr-18 04:30N 35°38' E 139°45'0 0.0
2018-Apr-18 01:58N 35°38' E 139°45'0 0.0
2018-Apr-18 01:21N 35°38' E 139°45'0 0.0
2018-Apr-18 00:50N 35°38' E 139°45'0 0.0
2018-Apr-18 00:30N 35°38' E 139°45'0 0.0
2018-Apr-17 23:59N 35°38' E 139°45'0 0.0
2018-Apr-17 23:30N 35°38' E 139°45'2 3.6
2018-Apr-17 23:00N 35°36' E 139°46'2 3.4
2018-Apr-17 22:30N 35°35' E 139°47'2 4.7
2018-Apr-17 22:00N 35°33' E 139°49'0 0.6
2018-Apr-17 21:31N 35°34' E 139°49'1 2.8
2018-Apr-17 21:00N 35°35' E 139°48'2 3.6
2018-Apr-17 20:30N 35°36' E 139°47'2 4.4
2018-Apr-17 20:00N 35°38' E 139°45'2 3.6
2018-Apr-17 19:30N 35°36' E 139°46'0 1.0
2018-Apr-17 19:00N 35°37' E 139°46'0 0.1
2018-Apr-17 18:31N 35°37' E 139°46'1 2.9
2018-Apr-17 18:00N 35°38' E 139°46'0 0.0
2018-Apr-17 17:30N 35°38' E 139°46'0 0.0
2018-Apr-17 17:00N 35°38' E 139°46'0 0.0
2018-Apr-17 16:30N 35°38' E 139°46'0 0.0
2018-Apr-17 16:01N 35°38' E 139°46'0 0.0
2018-Apr-17 15:31N 35°38' E 139°46'0 0.0
2018-Apr-17 15:00N 35°38' E 139°46'0 0.0
2018-Apr-17 14:30N 35°38' E 139°46'0 0.0
2018-Apr-17 14:01N 35°38' E 139°46'0 0.0
2018-Apr-17 13:29N 35°38' E 139°46'0 0.0
2018-Apr-17 13:00N 35°38' E 139°46'0 0.0
2018-Apr-17 12:30N 35°38' E 139°46'0 0.0
2018-Apr-17 12:00N 35°38' E 139°46'0 0.0
2018-Apr-17 11:30N 35°38' E 139°46'0 0.0
2018-Apr-17 11:00N 35°38' E 139°46'0 0.0
2018-Apr-17 10:30N 35°38' E 139°46'0 0.0
2018-Apr-17 10:00N 35°38' E 139°46'0 0.0
2018-Apr-17 09:28N 35°38' E 139°46'0 0.0
2018-Apr-17 08:59N 35°38' E 139°46'0 0.0
2018-Apr-17 08:30N 35°38' E 139°46'0 0.0
2018-Apr-17 08:00N 35°38' E 139°46'0 0.0
2018-Apr-17 07:30N 35°38' E 139°46'0 0.0
2018-Apr-17 07:00N 35°38' E 139°46'0 0.0
2018-Apr-17 06:30N 35°38' E 139°46'0 0.0
2018-Apr-17 06:00N 35°38' E 139°46'0 0.0
2018-Apr-17 05:30N 35°38' E 139°46'0 0.0
2018-Apr-17 05:00N 35°38' E 139°46'0 0.0
2018-Apr-17 04:30N 35°38' E 139°46'0 0.0
2018-Apr-17 03:59N 35°38' E 139°46'0 0.0
2018-Apr-17 03:31N 35°38' E 139°46'0 0.0
2018-Apr-17 03:00N 35°38' E 139°46'0 0.0
2018-Apr-17 02:30N 35°38' E 139°46'0 0.0
2018-Apr-17 02:00N 35°38' E 139°46'0 0.0
2018-Apr-17 01:26N 35°38' E 139°46'0 0.0
2018-Apr-17 01:01N 35°38' E 139°46'0 0.0
2018-Apr-17 00:30N 35°38' E 139°46'0 0.0
2018-Apr-17 00:00N 35°38' E 139°46'0 0.0
2018-Apr-16 23:30N 35°38' E 139°46'0 0.0
2018-Apr-16 23:00N 35°38' E 139°46'0 0.0
2018-Apr-16 22:31N 35°38' E 139°46'0 0.0
2018-Apr-16 22:01N 35°38' E 139°46'0 0.0
2018-Apr-16 21:30N 35°38' E 139°46'0 0.0
2018-Apr-16 21:00N 35°38' E 139°46'0 0.0
2018-Apr-16 20:30N 35°38' E 139°46'0 0.0
2018-Apr-16 20:00N 35°38' E 139°46'0 0.0
2018-Apr-16 19:30N 35°38' E 139°46'0 0.0
2018-Apr-16 19:00N 35°38' E 139°46'0 0.0
2018-Apr-16 18:30N 35°38' E 139°46'0 0.0
2018-Apr-16 18:00N 35°38' E 139°46'0 0.0
2018-Apr-16 17:30N 35°38' E 139°46'0 0.0
2018-Apr-16 17:01N 35°38' E 139°46'0 0.0
2018-Apr-16 16:31N 35°38' E 139°46'0 0.0
2018-Apr-16 16:01N 35°38' E 139°46'0 0.0
2018-Apr-16 15:30N 35°38' E 139°46'0 0.0
2018-Apr-16 15:00N 35°38' E 139°46'0 0.0
2018-Apr-16 14:30N 35°38' E 139°46'0 0.0
2018-Apr-16 13:59N 35°38' E 139°46'0 0.0
2018-Apr-16 13:29N 35°38' E 139°46'0 0.0
2018-Apr-16 13:01N 35°38' E 139°46'0 0.0
2018-Apr-16 12:31N 35°38' E 139°46'0 0.0
2018-Apr-16 12:01N 35°38' E 139°46'0 0.0
2018-Apr-16 11:31N 35°38' E 139°46'0 0.0
2018-Apr-16 11:00N 35°38' E 139°46'0 0.0
2018-Apr-16 10:30N 35°38' E 139°46'0 0.0
2018-Apr-16 10:00N 35°38' E 139°46'2 4.1
2018-Apr-16 09:30N 35°36' E 139°46'0 0.6
2018-Apr-16 09:00N 35°36' E 139°46'2 4.4
2018-Apr-16 08:30N 35°34' E 139°48'2 3.4
2018-Apr-16 08:00N 35°35' E 139°47'0 0.0
2018-Apr-16 07:30N 35°35' E 139°47'0 0.0
2018-Apr-16 06:43N 35°35' E 139°47'1 2.5
2018-Apr-16 06:30N 35°36' E 139°47'0 0.9
2018-Apr-16 06:00N 35°36' E 139°46'2 4.0
2018-Apr-16 05:30N 35°38' E 139°46'0 0.0
2018-Apr-16 04:59N 35°38' E 139°46'0 0.0
2018-Apr-16 04:30N 35°38' E 139°46'0 0.0
2018-Apr-16 03:47N 35°38' E 139°46'0 0.0
2018-Apr-16 03:23N 35°38' E 139°46'0 0.0
2018-Apr-16 02:57N 35°38' E 139°46'0 0.0
2018-Apr-16 02:30N 35°38' E 139°46'0 0.0
2018-Apr-16 02:00N 35°38' E 139°46'0 0.0
2018-Apr-16 01:30N 35°38' E 139°46'0 0.0
2018-Apr-16 01:00N 35°38' E 139°46'0 0.0
2018-Apr-16 00:24N 35°38' E 139°46'0 0.0
2018-Apr-15 23:56N 35°38' E 139°46'1 2.1
2018-Apr-15 23:31N 35°37' E 139°46'1 1.8
2018-Apr-15 23:00N 35°36' E 139°46'2 3.1
2018-Apr-15 22:30N 35°35' E 139°47'2 4.5
2018-Apr-15 22:00N 35°34' E 139°49'3 6.1
2018-Apr-15 21:30N 35°36' E 139°47'3 5.1
2018-Apr-15 21:00N 35°38' E 139°46'0 0.0
2018-Apr-15 20:30N 35°38' E 139°46'0 0.0
2018-Apr-15 19:58N 35°38' E 139°46'0 0.0
2018-Apr-15 19:31N 35°38' E 139°46'0 0.0
2018-Apr-15 19:00N 35°38' E 139°46'0 0.0
2018-Apr-15 18:30N 35°38' E 139°46'0 0.0
2018-Apr-15 18:00N 35°38' E 139°46'0 0.0
2018-Apr-15 17:30N 35°38' E 139°46'0 0.0
2018-Apr-15 16:59N 35°38' E 139°46'0 0.0
2018-Apr-15 16:30N 35°38' E 139°46'0 0.0
2018-Apr-15 16:00N 35°38' E 139°46'0 0.0
2018-Apr-15 15:26N 35°38' E 139°46'0 0.0
2018-Apr-15 15:00N 35°38' E 139°46'0 0.0
2018-Apr-15 14:30N 35°38' E 139°46'0 0.0
2018-Apr-15 13:59N 35°38' E 139°46'0 0.0
2018-Apr-15 13:29N 35°38' E 139°46'0 0.0
2018-Apr-15 13:00N 35°38' E 139°46'0 0.0
2018-Apr-15 12:30N 35°38' E 139°46'0 0.0
2018-Apr-15 12:00N 35°38' E 139°46'0 0.0
2018-Apr-15 11:30N 35°38' E 139°46'0 0.0
2018-Apr-15 11:00N 35°38' E 139°46'0 0.0
2018-Apr-15 10:29N 35°38' E 139°46'0 0.0
2018-Apr-15 09:58N 35°38' E 139°46'0 0.0
2018-Apr-15 09:29N 35°38' E 139°46'0 0.0
2018-Apr-15 08:59N 35°38' E 139°46'0 0.0
2018-Apr-15 08:30N 35°38' E 139°46'0 0.0
2018-Apr-15 07:59N 35°38' E 139°46'0 0.0
2018-Apr-15 07:30N 35°38' E 139°46'0 0.0
2018-Apr-15 06:59N 35°38' E 139°46'0 0.0
2018-Apr-15 06:30N 35°38' E 139°46'0 0.0
2018-Apr-15 06:01N 35°38' E 139°46'0 0.0
2018-Apr-15 05:30N 35°38' E 139°46'0 0.0
2018-Apr-15 05:01N 35°38' E 139°46'0 0.0
2018-Apr-15 04:26N 35°38' E 139°46'0 0.0
2018-Apr-15 04:00N 35°38' E 139°46'0 0.0
2018-Apr-15 03:30N 35°38' E 139°46'0 0.0
2018-Apr-15 02:59N 35°38' E 139°46'0 0.0
2018-Apr-15 02:31N 35°38' E 139°46'0 0.0
2018-Apr-15 02:00N 35°38' E 139°46'0 0.0
2018-Apr-15 01:29N 35°38' E 139°46'0 0.0
2018-Apr-15 00:55N 35°38' E 139°46'0 0.0
2018-Apr-15 00:30N 35°38' E 139°46'0 0.0
2018-Apr-15 00:00N 35°38' E 139°46'0 0.0
2018-Apr-14 23:30N 35°38' E 139°46'0 0.0
2018-Apr-14 23:00N 35°38' E 139°46'0 0.0
2018-Apr-14 22:30N 35°38' E 139°46'0 0.0
2018-Apr-14 22:00N 35°38' E 139°46'0 0.0
2018-Apr-14 21:30N 35°38' E 139°46'0 0.0
2018-Apr-14 21:01N 35°38' E 139°46'0 0.0
2018-Apr-14 20:31N 35°38' E 139°46'0 0.0
2018-Apr-14 20:00N 35°38' E 139°46'0 0.0
2018-Apr-14 19:24N 35°38' E 139°46'0 0.0
2018-Apr-14 18:51N 35°38' E 139°46'1 4.0
2018-Apr-14 18:30N 35°37' E 139°46'1 1.6
2018-Apr-14 18:00N 35°36' E 139°46'1 2.5
2018-Apr-14 17:30N 35°37' E 139°46'1 1.4
2018-Apr-14 16:59N 35°38' E 139°46'0 0.0
2018-Apr-14 16:30N 35°38' E 139°46'0 0.0
2018-Apr-14 16:00N 35°38' E 139°46'0 0.0
2018-Apr-14 15:30N 35°38' E 139°46'0 0.0
2018-Apr-14 15:00N 35°38' E 139°46'0 0.0
2018-Apr-14 14:30N 35°38' E 139°46'0 0.0
2018-Apr-14 14:01N 35°38' E 139°46'0 0.0
2018-Apr-14 13:30N 35°38' E 139°46'2 3.8
2018-Apr-14 12:59N 35°36' E 139°47'1 1.6
2018-Apr-14 12:30N 35°36' E 139°48'1 2.5
2018-Apr-14 12:00N 35°35' E 139°48'3 6.1
2018-Apr-14 11:31N 35°38' E 139°46'2 3.3
2018-Apr-14 10:59N 35°36' E 139°47'1 2.4
2018-Apr-14 10:30N 35°35' E 139°48'1 1.7
2018-Apr-14 10:00N 35°34' E 139°48'2 2.7
2018-Apr-14 09:25N 35°36' E 139°47'1 2.7
2018-Apr-14 08:59N 35°37' E 139°46'1 1.3
2018-Apr-14 08:29N 35°37' E 139°46'1 2.0
2018-Apr-14 07:59N 35°38' E 139°46'0 0.0
2018-Apr-14 07:30N 35°38' E 139°46'0 0.0
2018-Apr-14 07:01N 35°38' E 139°46'0 0.0
2018-Apr-14 06:30N 35°38' E 139°46'0 0.0
2018-Apr-14 06:00N 35°38' E 139°46'0 0.0
2018-Apr-14 05:30N 35°38' E 139°46'0 0.0
2018-Apr-14 05:01N 35°38' E 139°46'0 0.0
2018-Apr-14 04:30N 35°38' E 139°46'0 0.0
2018-Apr-14 04:00N 35°38' E 139°46'0 0.0
2018-Apr-14 03:30N 35°38' E 139°46'3 4.8
2018-Apr-14 02:58N 35°36' E 139°47'0 0.8
2018-Apr-14 02:29N 35°36' E 139°46'1 2.5
2018-Apr-14 02:00N 35°37' E 139°46'1 2.2
2018-Apr-14 01:30N 35°38' E 139°46'0 0.0
2018-Apr-14 01:00N 35°38' E 139°46'0 0.0
2018-Apr-14 00:30N 35°38' E 139°46'0 0.0
2018-Apr-14 00:00N 35°38' E 139°46'0 0.0
2018-Apr-13 23:31N 35°38' E 139°46'0 0.5
2018-Apr-13 23:00N 35°38' E 139°46'1 2.9
2018-Apr-13 22:30N 35°37' E 139°46'3 6.8
2018-Apr-13 22:00N 35°34' E 139°49'3 6.3
2018-Apr-13 21:30N 35°37' E 139°47'0 0.3
2018-Apr-13 21:00N 35°37' E 139°47'2 3.5
2018-Apr-13 20:29N 35°38' E 139°46'0 0.0
2018-Apr-13 20:00N 35°38' E 139°46'0 0.0
2018-Apr-13 19:30N 35°38' E 139°46'0 0.0
2018-Apr-13 19:00N 35°38' E 139°46'0 0.0
2018-Apr-13 18:31N 35°38' E 139°46'0 0.0
2018-Apr-13 18:00N 35°38' E 139°46'0 0.0
2018-Apr-13 17:30N 35°38' E 139°46'0 0.0
2018-Apr-13 17:00N 35°38' E 139°46'0 0.0
2018-Apr-13 16:31N 35°38' E 139°46'0 0.0
2018-Apr-13 16:00N 35°38' E 139°46'0 0.0
2018-Apr-13 15:30N 35°38' E 139°46'0 0.0
2018-Apr-13 15:00N 35°38' E 139°46'0 0.0
2018-Apr-13 14:30N 35°38' E 139°46'0 0.0
2018-Apr-13 14:00N 35°38' E 139°46'0 0.0
2018-Apr-13 13:31N 35°38' E 139°46'  
Track history (hours):
 
Tides and Currents Weather Stations Pressure Air Temp Water Temp Dewpoint Dewpoint Depression Visibility Wind Speed Wind Dir Waves Ship Positions

Fuji Maru

Last reported at 2018-Apr-23 13:30 UTC. Time now 2018-Apr-23 13:30 UTC.
Position N 35°38' E 139°46'.

Length 38 m; draft 4.4 m.

Type: Tug. MMSI: 431001102.

Date/timePositionNaut miles runAvg speedWind from/ knotsBaromVisibWave heightAir tempDewpointWater temp
2018-Apr-23 13:30N 35°38' E 139°46'0 0.1
2018-Apr-23 12:59N 35°38' E 139°46'0 0.8
2018-Apr-23 12:27N 35°38' E 139°46'0 0.0
2018-Apr-23 12:00N 35°38' E 139°46'0 0.0
2018-Apr-23 11:30N 35°38' E 139°46'0 0.6
2018-Apr-23 11:00N 35°37' E 139°46'2 3.1
2018-Apr-23 10:30N 35°36' E 139°47'1 1.4
2018-Apr-23 09:59N 35°36' E 139°46'1 1.8
2018-Apr-23 09:29N 35°37' E 139°46'1 2.0
2018-Apr-23 09:00N 35°38' E 139°46'0 0.0
2018-Apr-23 08:30N 35°38' E 139°46'0 0.0
2018-Apr-23 08:00N 35°38' E 139°46'0 0.0
2018-Apr-23 07:31N 35°38' E 139°46'0 0.0
2018-Apr-23 07:00N 35°38' E 139°46'2 3.9
2018-Apr-23 06:29N 35°37' E 139°47'1 2.7
2018-Apr-23 06:00N 35°35' E 139°47'4 7.3
2018-Apr-23 05:30N 35°34' E 139°52'4 8.1
2018-Apr-23 05:01N 35°36' E 139°47'3 5.6
2018-Apr-23 04:30N 35°38' E 139°46'0 0.0
2018-Apr-23 04:00N 35°38' E 139°46'0 0.0
2018-Apr-23 03:30N 35°38' E 139°46'0 0.0
2018-Apr-23 03:00N 35°38' E 139°46'0 0.0
2018-Apr-23 02:30N 35°38' E 139°46'0 0.0
2018-Apr-23 02:00N 35°38' E 139°46'0 0.0
2018-Apr-23 01:31N 35°38' E 139°46'0 0.0
2018-Apr-23 00:58N 35°38' E 139°46'0 0.0
2018-Apr-23 00:30N 35°38' E 139°46'0 0.0
2018-Apr-23 00:00N 35°38' E 139°46'0 0.0
2018-Apr-22 23:30N 35°38' E 139°46'2 3.2
2018-Apr-22 23:00N 35°37' E 139°46'1 1.4
2018-Apr-22 22:30N 35°36' E 139°47'1 2.4
2018-Apr-22 22:00N 35°35' E 139°47'2 3.7
2018-Apr-22 21:30N 35°34' E 139°49'3 6.0
2018-Apr-22 20:59N 35°36' E 139°46'1 1.1
2018-Apr-22 20:30N 35°37' E 139°46'0 0.2
2018-Apr-22 20:00N 35°37' E 139°46'2 0.6
2018-Apr-22 17:18N 35°38' E 139°45'0 0.0
2018-Apr-22 17:01N 35°38' E 139°45'0 0.0
2018-Apr-22 16:25N 35°38' E 139°45'0 0.0
2018-Apr-22 15:34N 35°38' E 139°45'0 0.0
2018-Apr-22 14:55N 35°38' E 139°45'0 0.0
2018-Apr-22 14:30N 35°38' E 139°45'0 0.0
2018-Apr-22 14:00N 35°38' E 139°45'0 0.0
2018-Apr-22 13:22N 35°38' E 139°45'0 0.0
2018-Apr-22 12:57N 35°38' E 139°45'0 0.0
2018-Apr-22 12:30N 35°38' E 139°45'0 0.0
2018-Apr-22 11:56N 35°38' E 139°45'0 0.0
2018-Apr-22 11:28N 35°38' E 139°45'0 0.0
2018-Apr-22 11:00N 35°38' E 139°45'0 0.0
2018-Apr-22 10:17N 35°38' E 139°45'0 0.0
2018-Apr-22 09:58N 35°38' E 139°45'0 0.0
2018-Apr-22 09:29N 35°38' E 139°45'0 0.0
2018-Apr-22 09:01N 35°38' E 139°45'0 0.0
2018-Apr-22 08:30N 35°38' E 139°45'0 0.0
2018-Apr-22 08:00N 35°38' E 139°45'0 0.0
2018-Apr-22 07:29N 35°38' E 139°45'0 0.0
2018-Apr-22 07:00N 35°38' E 139°45'0 0.0
2018-Apr-22 06:31N 35°38' E 139°45'0 0.0
2018-Apr-22 05:58N 35°38' E 139°45'0 0.0
2018-Apr-22 05:20N 35°38' E 139°45'0 0.0
2018-Apr-22 04:52N 35°38' E 139°45'0 0.0
2018-Apr-22 04:30N 35°38' E 139°45'0 0.0
2018-Apr-22 04:00N 35°38' E 139°45'0 0.0
2018-Apr-22 03:27N 35°38' E 139°45'0 0.0
2018-Apr-22 02:53N 35°38' E 139°45'0 0.0
2018-Apr-22 02:31N 35°38' E 139°45'0 0.0
2018-Apr-22 02:00N 35°38' E 139°45'2 3.6
2018-Apr-22 01:30N 35°36' E 139°46'0 0.7
2018-Apr-22 01:00N 35°36' E 139°47'1 2.9
2018-Apr-22 00:30N 35°38' E 139°46'1 1.2
2018-Apr-21 23:59N 35°38' E 139°46'0 0.0
2018-Apr-21 23:29N 35°38' E 139°46'0 0.0
2018-Apr-21 23:01N 35°38' E 139°46'0 0.0
2018-Apr-21 22:30N 35°38' E 139°46'0 0.0
2018-Apr-21 21:59N 35°38' E 139°46'0 0.0
2018-Apr-21 21:30N 35°38' E 139°46'0 0.0
2018-Apr-21 21:00N 35°38' E 139°46'0 0.0
2018-Apr-21 20:31N 35°38' E 139°46'0 0.0
2018-Apr-21 20:01N 35°38' E 139°46'0 0.0
2018-Apr-21 19:30N 35°38' E 139°46'0 0.0
2018-Apr-21 19:00N 35°38' E 139°46'0 0.0
2018-Apr-21 18:31N 35°38' E 139°46'0 0.0
2018-Apr-21 18:00N 35°38' E 139°46'0 0.0
2018-Apr-21 17:30N 35°38' E 139°46'0 0.0
2018-Apr-21 17:00N 35°38' E 139°46'0 0.0
2018-Apr-21 16:29N 35°38' E 139°46'0 0.0
2018-Apr-21 16:00N 35°38' E 139°46'0 0.0
2018-Apr-21 15:30N 35°38' E 139°46'0 0.0
2018-Apr-21 15:01N 35°38' E 139°46'0 0.0
2018-Apr-21 14:30N 35°38' E 139°46'0 0.0
2018-Apr-21 14:00N 35°38' E 139°46'0 0.0
2018-Apr-21 13:30N 35°38' E 139°46'0 0.0
2018-Apr-21 13:01N 35°38' E 139°46'0 0.0
2018-Apr-21 12:30N 35°38' E 139°46'0 0.0
2018-Apr-21 11:59N 35°38' E 139°46'0 0.0
2018-Apr-21 11:30N 35°38' E 139°46'0 0.0
2018-Apr-21 11:00N 35°38' E 139°46'0 0.0
2018-Apr-21 10:30N 35°38' E 139°46'2 3.4
2018-Apr-21 10:01N 35°37' E 139°46'1 1.7
2018-Apr-21 09:29N 35°37' E 139°46'1 1.6
2018-Apr-21 09:00N 35°38' E 139°46'0 0.0
2018-Apr-21 08:31N 35°38' E 139°46'0 0.0
2018-Apr-21 08:01N 35°38' E 139°46'0 0.0
2018-Apr-21 07:31N 35°38' E 139°46'0 0.0
2018-Apr-21 07:00N 35°38' E 139°46'0 0.0
2018-Apr-21 06:30N 35°38' E 139°46'0 0.0
2018-Apr-21 06:01N 35°38' E 139°46'0 0.0
2018-Apr-21 05:30N 35°38' E 139°46'0 0.0
2018-Apr-21 05:00N 35°38' E 139°46'0 0.0
2018-Apr-21 04:30N 35°38' E 139°46'0 0.0
2018-Apr-21 04:01N 35°38' E 139°46'0 0.0
2018-Apr-21 03:30N 35°38' E 139°46'0 0.0
2018-Apr-21 03:00N 35°38' E 139°46'0 0.0
2018-Apr-21 02:28N 35°38' E 139°46'0 0.0
2018-Apr-21 01:59N 35°38' E 139°46'0 0.0
2018-Apr-21 01:19N 35°38' E 139°46'0 0.0
2018-Apr-21 00:58N 35°38' E 139°46'0 0.0
2018-Apr-21 00:29N 35°38' E 139°46'0 0.0
2018-Apr-21 00:00N 35°38' E 139°46'0 0.0
2018-Apr-20 23:30N 35°38' E 139°46'0 0.0
2018-Apr-20 23:00N 35°38' E 139°46'2 3.2
2018-Apr-20 22:30N 35°37' E 139°46'0 0.7
2018-Apr-20 22:00N 35°36' E 139°46'3 5.6
2018-Apr-20 21:30N 35°34' E 139°49'1 2.0
2018-Apr-20 21:00N 35°35' E 139°48'2 3.3
2018-Apr-20 20:30N 35°36' E 139°46'2 4.2
2018-Apr-20 20:00N 35°38' E 139°45'0 0.1
2018-Apr-20 19:27N 35°38' E 139°45'0 0.0
2018-Apr-20 19:00N 35°38' E 139°45'1 1.8
2018-Apr-20 18:30N 35°37' E 139°46'1 1.8
2018-Apr-20 18:00N 35°38' E 139°45'0 0.0
2018-Apr-20 17:30N 35°38' E 139°45'0 0.0
2018-Apr-20 17:00N 35°38' E 139°45'0 0.0
2018-Apr-20 16:29N 35°38' E 139°45'0 0.0
2018-Apr-20 15:59N 35°38' E 139°45'0 0.0
2018-Apr-20 15:30N 35°38' E 139°45'0 0.0
2018-Apr-20 15:00N 35°38' E 139°45'0 0.0
2018-Apr-20 14:31N 35°38' E 139°45'0 0.0
2018-Apr-20 13:58N 35°38' E 139°45'0 0.0
2018-Apr-20 13:30N 35°38' E 139°45'0 0.0
2018-Apr-20 13:00N 35°38' E 139°45'0 0.0
2018-Apr-20 12:31N 35°38' E 139°45'0 0.0
2018-Apr-20 11:59N 35°38' E 139°45'0 0.0
2018-Apr-20 11:30N 35°38' E 139°45'0 0.0
2018-Apr-20 10:58N 35°38' E 139°45'0 0.0
2018-Apr-20 10:30N 35°38' E 139°45'0 0.0
2018-Apr-20 10:00N 35°38' E 139°45'0 0.0
2018-Apr-20 09:25N 35°38' E 139°45'0 0.0
2018-Apr-20 08:55N 35°38' E 139°45'0 0.0
2018-Apr-20 08:18N 35°38' E 139°45'0 0.0
2018-Apr-20 07:55N 35°38' E 139°45'0 0.0
2018-Apr-20 07:29N 35°38' E 139°45'0 0.0
2018-Apr-20 06:57N 35°38' E 139°45'0 0.0
2018-Apr-20 06:27N 35°38' E 139°45'0 0.0
2018-Apr-20 06:00N 35°38' E 139°45'0 0.0
2018-Apr-20 05:30N 35°38' E 139°45'0 0.0
2018-Apr-20 04:59N 35°38' E 139°45'0 0.0
2018-Apr-20 04:30N 35°38' E 139°45'0 0.0
2018-Apr-20 03:59N 35°38' E 139°45'0 0.0
2018-Apr-20 03:29N 35°38' E 139°45'0 0.0
2018-Apr-20 03:00N 35°38' E 139°45'0 0.0
2018-Apr-20 02:30N 35°38' E 139°45'0 0.0
2018-Apr-20 02:01N 35°38' E 139°45'0 0.0
2018-Apr-20 01:31N 35°38' E 139°45'0 0.0
2018-Apr-20 00:59N 35°38' E 139°45'0 0.0
2018-Apr-20 00:30N 35°38' E 139°45'0 0.0
2018-Apr-20 00:00N 35°38' E 139°45'0 0.0
2018-Apr-19 23:31N 35°38' E 139°45'0 0.0
2018-Apr-19 23:00N 35°38' E 139°45'0 0.0
2018-Apr-19 22:30N 35°38' E 139°45'0 0.0
2018-Apr-19 22:00N 35°38' E 139°45'0 0.0
2018-Apr-19 21:30N 35°38' E 139°45'0 0.0
2018-Apr-19 21:00N 35°38' E 139°45'0 0.0
2018-Apr-19 20:30N 35°38' E 139°45'0 0.0
2018-Apr-19 20:00N 35°38' E 139°45'0 0.0
2018-Apr-19 19:30N 35°38' E 139°45'0 0.0
2018-Apr-19 19:00N 35°38' E 139°45'0 0.0
2018-Apr-19 18:30N 35°38' E 139°45'0 0.0
2018-Apr-19 18:00N 35°38' E 139°45'0 0.0
2018-Apr-19 17:31N 35°38' E 139°45'0 0.0
2018-Apr-19 17:00N 35°38' E 139°45'0 0.0
2018-Apr-19 16:31N 35°38' E 139°45'0 0.0
2018-Apr-19 16:00N 35°38' E 139°45'0 0.0
2018-Apr-19 15:30N 35°38' E 139°45'0 0.0
2018-Apr-19 15:00N 35°38' E 139°45'0 0.0
2018-Apr-19 14:29N 35°38' E 139°45'0 0.0
2018-Apr-19 14:01N 35°38' E 139°45'0 0.0
2018-Apr-19 13:30N 35°38' E 139°45'0 0.0
2018-Apr-19 13:00N 35°38' E 139°45'0 0.0
2018-Apr-19 12:31N 35°38' E 139°45'0 0.0
2018-Apr-19 12:00N 35°38' E 139°45'0 0.0
2018-Apr-19 11:27N 35°38' E 139°45'0 0.0
2018-Apr-19 11:00N 35°38' E 139°45'0 0.0
2018-Apr-19 10:30N 35°38' E 139°45'0 0.0
2018-Apr-19 10:01N 35°38' E 139°45'0 0.0
2018-Apr-19 09:31N 35°38' E 139°45'0 0.0
2018-Apr-19 09:00N 35°38' E 139°45'0 0.0
2018-Apr-19 08:30N 35°38' E 139°45'0 0.0
2018-Apr-19 08:00N 35°38' E 139°45'0 0.0
2018-Apr-19 07:30N 35°38' E 139°45'0 0.0
2018-Apr-19 06:57N 35°38' E 139°45'0 0.0
2018-Apr-19 06:30N 35°38' E 139°45'0 0.0
2018-Apr-19 06:00N 35°38' E 139°45'0 0.0
2018-Apr-19 05:31N 35°38' E 139°45'0 0.0
2018-Apr-19 04:59N 35°38' E 139°45'0 0.0
2018-Apr-19 04:28N 35°38' E 139°45'0 0.0
2018-Apr-19 03:57N 35°38' E 139°45'0 0.0
2018-Apr-19 03:29N 35°38' E 139°45'0 0.0
2018-Apr-19 03:00N 35°38' E 139°45'0 0.0
2018-Apr-19 02:30N 35°38' E 139°45'0 0.0
2018-Apr-19 02:00N 35°38' E 139°45'0 0.0
2018-Apr-19 01:30N 35°38' E 139°45'0 0.0
2018-Apr-19 00:58N 35°38' E 139°45'0 0.0
2018-Apr-19 00:28N 35°38' E 139°45'0 0.0
2018-Apr-19 00:00N 35°38' E 139°45'0 0.0
2018-Apr-18 23:30N 35°38' E 139°45'0 0.7
2018-Apr-18 23:00N 35°39' E 139°46'1 3.0
2018-Apr-18 22:30N 35°37' E 139°46'4 7.4
2018-Apr-18 22:00N 35°34' E 139°49'0 0.8
2018-Apr-18 21:30N 35°34' E 139°48'3 5.4
2018-Apr-18 21:00N 35°36' E 139°46'1 2.8
2018-Apr-18 20:31N 35°38' E 139°46'1 1.3
2018-Apr-18 20:00N 35°38' E 139°45'0 0.0
2018-Apr-18 19:31N 35°38' E 139°45'0 0.0
2018-Apr-18 19:00N 35°38' E 139°45'0 0.0
2018-Apr-18 18:30N 35°38' E 139°45'0 0.0
2018-Apr-18 18:00N 35°38' E 139°45'0 0.0
2018-Apr-18 17:30N 35°38' E 139°45'0 0.0
2018-Apr-18 17:00N 35°38' E 139°45'0 0.0
2018-Apr-18 16:30N 35°38' E 139°45'0 0.0
2018-Apr-18 15:58N 35°38' E 139°45'0 0.0
2018-Apr-18 15:30N 35°38' E 139°45'0 0.0
2018-Apr-18 15:00N 35°38' E 139°45'0 0.0
2018-Apr-18 14:30N 35°38' E 139°45'0 0.0
2018-Apr-18 14:00N 35°38' E 139°45'0 0.0
2018-Apr-18 13:30N 35°38' E 139°45'0 0.0
2018-Apr-18 12:59N 35°38' E 139°45'0 0.0
2018-Apr-18 12:30N 35°38' E 139°45'0 0.0
2018-Apr-18 12:00N 35°38' E 139°45'0 0.0
2018-Apr-18 11:30N 35°38' E 139°45'0 0.0
2018-Apr-18 11:01N 35°38' E 139°45'0 0.0
2018-Apr-18 10:31N 35°38' E 139°45'0 0.0
2018-Apr-18 10:00N 35°38' E 139°45'0 0.0
2018-Apr-18 09:31N 35°38' E 139°45'0 0.0
2018-Apr-18 09:01N 35°38' E 139°45'0 0.0
2018-Apr-18 08:28N 35°38' E 139°45'0 0.0
2018-Apr-18 08:01N 35°38' E 139°45'0 0.0
2018-Apr-18 07:31N 35°38' E 139°45'0 0.0
2018-Apr-18 06:59N 35°38' E 139°45'1 2.0
2018-Apr-18 06:29N 35°37' E 139°46'1 1.8
2018-Apr-18 05:57N 35°38' E 139°45'0 0.0
2018-Apr-18 05:29N 35°38' E 139°45'0 0.0
2018-Apr-18 04:51N 35°38' E 139°45'0 0.0
2018-Apr-18 04:30N 35°38' E 139°45'0 0.0
2018-Apr-18 01:58N 35°38' E 139°45'0 0.0
2018-Apr-18 01:21N 35°38' E 139°45'0 0.0
2018-Apr-18 00:50N 35°38' E 139°45'0 0.0
2018-Apr-18 00:30N 35°38' E 139°45'0 0.0
2018-Apr-17 23:59N 35°38' E 139°45'0 0.0
2018-Apr-17 23:30N 35°38' E 139°45'2 3.6
2018-Apr-17 23:00N 35°36' E 139°46'2 3.4
2018-Apr-17 22:30N 35°35' E 139°47'2 4.7
2018-Apr-17 22:00N 35°33' E 139°49'0 0.6
2018-Apr-17 21:31N 35°34' E 139°49'1 2.8
2018-Apr-17 21:00N 35°35' E 139°48'2 3.6
2018-Apr-17 20:30N 35°36' E 139°47'2 4.4
2018-Apr-17 20:00N 35°38' E 139°45'2 3.6
2018-Apr-17 19:30N 35°36' E 139°46'0 1.0
2018-Apr-17 19:00N 35°37' E 139°46'0 0.1
2018-Apr-17 18:31N 35°37' E 139°46'1 2.9
2018-Apr-17 18:00N 35°38' E 139°46'0 0.0
2018-Apr-17 17:30N 35°38' E 139°46'0 0.0
2018-Apr-17 17:00N 35°38' E 139°46'0 0.0
2018-Apr-17 16:30N 35°38' E 139°46'0 0.0
2018-Apr-17 16:01N 35°38' E 139°46'0 0.0
2018-Apr-17 15:31N 35°38' E 139°46'0 0.0
2018-Apr-17 15:00N 35°38' E 139°46'0 0.0
2018-Apr-17 14:30N 35°38' E 139°46'0 0.0
2018-Apr-17 14:01N 35°38' E 139°46'0 0.0
2018-Apr-17 13:29N 35°38' E 139°46'0 0.0
2018-Apr-17 13:00N 35°38' E 139°46'0 0.0
2018-Apr-17 12:30N 35°38' E 139°46'0 0.0
2018-Apr-17 12:00N 35°38' E 139°46'0 0.0
2018-Apr-17 11:30N 35°38' E 139°46'0 0.0
2018-Apr-17 11:00N 35°38' E 139°46'0 0.0
2018-Apr-17 10:30N 35°38' E 139°46'0 0.0
2018-Apr-17 10:00N 35°38' E 139°46'0 0.0
2018-Apr-17 09:28N 35°38' E 139°46'0 0.0
2018-Apr-17 08:59N 35°38' E 139°46'0 0.0
2018-Apr-17 08:30N 35°38' E 139°46'0 0.0
2018-Apr-17 08:00N 35°38' E 139°46'0 0.0
2018-Apr-17 07:30N 35°38' E 139°46'0 0.0
2018-Apr-17 07:00N 35°38' E 139°46'0 0.0
2018-Apr-17 06:30N 35°38' E 139°46'0 0.0
2018-Apr-17 06:00N 35°38' E 139°46'0 0.0
2018-Apr-17 05:30N 35°38' E 139°46'0 0.0
2018-Apr-17 05:00N 35°38' E 139°46'0 0.0
2018-Apr-17 04:30N 35°38' E 139°46'0 0.0
2018-Apr-17 03:59N 35°38' E 139°46'0 0.0
2018-Apr-17 03:31N 35°38' E 139°46'0 0.0
2018-Apr-17 03:00N 35°38' E 139°46'0 0.0
2018-Apr-17 02:30N 35°38' E 139°46'0 0.0
2018-Apr-17 02:00N 35°38' E 139°46'0 0.0
2018-Apr-17 01:26N 35°38' E 139°46'0 0.0
2018-Apr-17 01:01N 35°38' E 139°46'0 0.0
2018-Apr-17 00:30N 35°38' E 139°46'0 0.0
2018-Apr-17 00:00N 35°38' E 139°46'0 0.0
2018-Apr-16 23:30N 35°38' E 139°46'0 0.0
2018-Apr-16 23:00N 35°38' E 139°46'0 0.0
2018-Apr-16 22:31N 35°38' E 139°46'0 0.0
2018-Apr-16 22:01N 35°38' E 139°46'0 0.0
2018-Apr-16 21:30N 35°38' E 139°46'0 0.0
2018-Apr-16 21:00N 35°38' E 139°46'0 0.0
2018-Apr-16 20:30N 35°38' E 139°46'0 0.0
2018-Apr-16 20:00N 35°38' E 139°46'0 0.0
2018-Apr-16 19:30N 35°38' E 139°46'0 0.0
2018-Apr-16 19:00N 35°38' E 139°46'0 0.0
2018-Apr-16 18:30N 35°38' E 139°46'0 0.0
2018-Apr-16 18:00N 35°38' E 139°46'0 0.0
2018-Apr-16 17:30N 35°38' E 139°46'0 0.0
2018-Apr-16 17:01N 35°38' E 139°46'0 0.0
2018-Apr-16 16:31N 35°38' E 139°46'0 0.0
2018-Apr-16 16:01N 35°38' E 139°46'0 0.0
2018-Apr-16 15:30N 35°38' E 139°46'0 0.0
2018-Apr-16 15:00N 35°38' E 139°46'0 0.0
2018-Apr-16 14:30N 35°38' E 139°46'0 0.0
2018-Apr-16 13:59N 35°38' E 139°46'0 0.0
2018-Apr-16 13:29N 35°38' E 139°46'0 0.0
2018-Apr-16 13:01N 35°38' E 139°46'0 0.0
2018-Apr-16 12:31N 35°38' E 139°46'0 0.0
2018-Apr-16 12:01N 35°38' E 139°46'0 0.0
2018-Apr-16 11:31N 35°38' E 139°46'0 0.0
2018-Apr-16 11:00N 35°38' E 139°46'0 0.0
2018-Apr-16 10:30N 35°38' E 139°46'0 0.0
2018-Apr-16 10:00N 35°38' E 139°46'2 4.1
2018-Apr-16 09:30N 35°36' E 139°46'0 0.6
2018-Apr-16 09:00N 35°36' E 139°46'2 4.4
2018-Apr-16 08:30N 35°34' E 139°48'2 3.4
2018-Apr-16 08:00N 35°35' E 139°47'0 0.0
2018-Apr-16 07:30N 35°35' E 139°47'0 0.0
2018-Apr-16 06:43N 35°35' E 139°47'1 2.5
2018-Apr-16 06:30N 35°36' E 139°47'0 0.9
2018-Apr-16 06:00N 35°36' E 139°46'2 4.0
2018-Apr-16 05:30N 35°38' E 139°46'0 0.0
2018-Apr-16 04:59N 35°38' E 139°46'0 0.0
2018-Apr-16 04:30N 35°38' E 139°46'0 0.0
2018-Apr-16 03:47N 35°38' E 139°46'0 0.0
2018-Apr-16 03:23N 35°38' E 139°46'0 0.0
2018-Apr-16 02:57N 35°38' E 139°46'0 0.0
2018-Apr-16 02:30N 35°38' E 139°46'0 0.0
2018-Apr-16 02:00N 35°38' E 139°46'0 0.0
2018-Apr-16 01:30N 35°38' E 139°46'0 0.0
2018-Apr-16 01:00N 35°38' E 139°46'0 0.0
2018-Apr-16 00:24N 35°38' E 139°46'0 0.0
2018-Apr-15 23:56N 35°38' E 139°46'1 2.1
2018-Apr-15 23:31N 35°37' E 139°46'1 1.8
2018-Apr-15 23:00N 35°36' E 139°46'2 3.1
2018-Apr-15 22:30N 35°35' E 139°47'2 4.5
2018-Apr-15 22:00N 35°34' E 139°49'3 6.1
2018-Apr-15 21:30N 35°36' E 139°47'3 5.1
2018-Apr-15 21:00N 35°38' E 139°46'0 0.0
2018-Apr-15 20:30N 35°38' E 139°46'0 0.0
2018-Apr-15 19:58N 35°38' E 139°46'0 0.0
2018-Apr-15 19:31N 35°38' E 139°46'0 0.0
2018-Apr-15 19:00N 35°38' E 139°46'0 0.0
2018-Apr-15 18:30N 35°38' E 139°46'0 0.0
2018-Apr-15 18:00N 35°38' E 139°46'0 0.0
2018-Apr-15 17:30N 35°38' E 139°46'0 0.0
2018-Apr-15 16:59N 35°38' E 139°46'0 0.0
2018-Apr-15 16:30N 35°38' E 139°46'0 0.0
2018-Apr-15 16:00N 35°38' E 139°46'0 0.0
2018-Apr-15 15:26N 35°38' E 139°46'0 0.0
2018-Apr-15 15:00N 35°38' E 139°46'0 0.0
2018-Apr-15 14:30N 35°38' E 139°46'0 0.0
2018-Apr-15 13:59N 35°38' E 139°46'0 0.0
2018-Apr-15 13:29N 35°38' E 139°46'0 0.0
2018-Apr-15 13:00N 35°38' E 139°46'0 0.0
2018-Apr-15 12:30N 35°38' E 139°46'0 0.0
2018-Apr-15 12:00N 35°38' E 139°46'0 0.0
2018-Apr-15 11:30N 35°38' E 139°46'0 0.0
2018-Apr-15 11:00N 35°38' E 139°46'0 0.0
2018-Apr-15 10:29N 35°38' E 139°46'0 0.0
2018-Apr-15 09:58N 35°38' E 139°46'0 0.0
2018-Apr-15 09:29N 35°38' E 139°46'0 0.0
2018-Apr-15 08:59N 35°38' E 139°46'0 0.0
2018-Apr-15 08:30N 35°38' E 139°46'0 0.0
2018-Apr-15 07:59N 35°38' E 139°46'0 0.0
2018-Apr-15 07:30N 35°38' E 139°46'0 0.0
2018-Apr-15 06:59N 35°38' E 139°46'0 0.0
2018-Apr-15 06:30N 35°38' E 139°46'0 0.0
2018-Apr-15 06:01N 35°38' E 139°46'0 0.0
2018-Apr-15 05:30N 35°38' E 139°46'0 0.0
2018-Apr-15 05:01N 35°38' E 139°46'0 0.0
2018-Apr-15 04:26N 35°38' E 139°46'0 0.0
2018-Apr-15 04:00N 35°38' E 139°46'0 0.0
2018-Apr-15 03:30N 35°38' E 139°46'0 0.0
2018-Apr-15 02:59N 35°38' E 139°46'0 0.0
2018-Apr-15 02:31N 35°38' E 139°46'0 0.0
2018-Apr-15 02:00N 35°38' E 139°46'0 0.0
2018-Apr-15 01:29N 35°38' E 139°46'0 0.0
2018-Apr-15 00:55N 35°38' E 139°46'0 0.0
2018-Apr-15 00:30N 35°38' E 139°46'0 0.0
2018-Apr-15 00:00N 35°38' E 139°46'0 0.0
2018-Apr-14 23:30N 35°38' E 139°46'0 0.0
2018-Apr-14 23:00N 35°38' E 139°46'0 0.0
2018-Apr-14 22:30N 35°38' E 139°46'0 0.0
2018-Apr-14 22:00N 35°38' E 139°46'0 0.0
2018-Apr-14 21:30N 35°38' E 139°46'0 0.0
2018-Apr-14 21:01N 35°38' E 139°46'0 0.0
2018-Apr-14 20:31N 35°38' E 139°46'0 0.0
2018-Apr-14 20:00N 35°38' E 139°46'0 0.0
2018-Apr-14 19:24N 35°38' E 139°46'0 0.0
2018-Apr-14 18:51N 35°38' E 139°46'1 4.0
2018-Apr-14 18:30N 35°37' E 139°46'1 1.6
2018-Apr-14 18:00N 35°36' E 139°46'1 2.5
2018-Apr-14 17:30N 35°37' E 139°46'1 1.4
2018-Apr-14 16:59N 35°38' E 139°46'0 0.0
2018-Apr-14 16:30N 35°38' E 139°46'0 0.0
2018-Apr-14 16:00N 35°38' E 139°46'0 0.0
2018-Apr-14 15:30N 35°38' E 139°46'0 0.0
2018-Apr-14 15:00N 35°38' E 139°46'0 0.0
2018-Apr-14 14:30N 35°38' E 139°46'0 0.0
2018-Apr-14 14:01N 35°38' E 139°46'0 0.0
2018-Apr-14 13:30N 35°38' E 139°46'2 3.8
2018-Apr-14 12:59N 35°36' E 139°47'1 1.6
2018-Apr-14 12:30N 35°36' E 139°48'1 2.5
2018-Apr-14 12:00N 35°35' E 139°48'3 6.1
2018-Apr-14 11:31N 35°38' E 139°46'2 3.3
2018-Apr-14 10:59N 35°36' E 139°47'1 2.4
2018-Apr-14 10:30N 35°35' E 139°48'1 1.7
2018-Apr-14 10:00N 35°34' E 139°48'2 2.7
2018-Apr-14 09:25N 35°36' E 139°47'1 2.7
2018-Apr-14 08:59N 35°37' E 139°46'1 1.3
2018-Apr-14 08:29N 35°37' E 139°46'1 2.0
2018-Apr-14 07:59N 35°38' E 139°46'0 0.0
2018-Apr-14 07:30N 35°38' E 139°46'0 0.0
2018-Apr-14 07:01N 35°38' E 139°46'0 0.0
2018-Apr-14 06:30N 35°38' E 139°46'0 0.0
2018-Apr-14 06:00N 35°38' E 139°46'0 0.0
2018-Apr-14 05:30N 35°38' E 139°46'0 0.0
2018-Apr-14 05:01N 35°38' E 139°46'0 0.0
2018-Apr-14 04:30N 35°38' E 139°46'0 0.0
2018-Apr-14 04:00N 35°38' E 139°46'0 0.0
2018-Apr-14 03:30N 35°38' E 139°46'3 4.8
2018-Apr-14 02:58N 35°36' E 139°47'0 0.8
2018-Apr-14 02:29N 35°36' E 139°46'1 2.5
2018-Apr-14 02:00N 35°37' E 139°46'1 2.2
2018-Apr-14 01:30N 35°38' E 139°46'0 0.0
2018-Apr-14 01:00N 35°38' E 139°46'0 0.0
2018-Apr-14 00:30N 35°38' E 139°46'0 0.0
2018-Apr-14 00:00N 35°38' E 139°46'0 0.0
2018-Apr-13 23:31N 35°38' E 139°46'0 0.5
2018-Apr-13 23:00N 35°38' E 139°46'1 2.9
2018-Apr-13 22:30N 35°37' E 139°46'3 6.8
2018-Apr-13 22:00N 35°34' E 139°49'3 6.3
2018-Apr-13 21:30N 35°37' E 139°47'0 0.3
2018-Apr-13 21:00N 35°37' E 139°47'2 3.5
2018-Apr-13 20:29N 35°38' E 139°46'0 0.0
2018-Apr-13 20:00N 35°38' E 139°46'0 0.0
2018-Apr-13 19:30N 35°38' E 139°46'0 0.0
2018-Apr-13 19:00N 35°38' E 139°46'0 0.0
2018-Apr-13 18:31N 35°38' E 139°46'0 0.0
2018-Apr-13 18:00N 35°38' E 139°46'0 0.0
2018-Apr-13 17:30N 35°38' E 139°46'0 0.0
2018-Apr-13 17:00N 35°38' E 139°46'0 0.0
2018-Apr-13 16:31N 35°38' E 139°46'0 0.0
2018-Apr-13 16:00N 35°38' E 139°46'0 0.0
2018-Apr-13 15:30N 35°38' E 139°46'0 0.0
2018-Apr-13 15:00N 35°38' E 139°46'0 0.0
2018-Apr-13 14:30N 35°38' E 139°46'0 0.0
2018-Apr-13 14:00N 35°38' E 139°46'0 0.0
2018-Apr-13 13:31N 35°38' E 139°46'  

Dump ship's entire track history